Time;durP1;ratioP1;P1;durP2;ratioP2;P2;SDS_P1;SDS_P2;PMS_P1;PMS_P2;Temp;Humidity;BMP_temperature;BMP_pressure;BME280_temperature;BME280_humidity;BME280_pressure;Samples;Min_cycle;Max_cycle;Signal;HPM_P1;HPM_P2
2022/05/02 00:00:15;;;;;;;73.33;67.23;;;;;;;11.15;100.00;102140.48;1985754;71;39711;-67
2022/05/02 00:06:00;;;;;;;75.30;69.03;;;;;;;11.09;100.00;102145.13;1891856;74;86326;-65
2022/05/02 00:11:44;;;;;;;73.10;67.00;;;;;;;10.94;100.00;102145.77;1892234;74;86562;-66
2022/05/02 00:23:33;;;;;;;74.80;68.23;;;;;;;10.85;100.00;102143.68;1804487;77;86334;-65
2022/05/02 00:29:17;;;;;;;71.80;65.40;;;;;;;10.91;100.00;102139.31;1975909;71;39661;-67
2022/05/02 00:35:03;;;;;;;72.33;66.03;;;;;;;11.19;100.00;102136.09;1829844;76;85711;-67
2022/05/02 00:40:48;;;;;;;73.37;66.77;;;;;;;11.09;100.00;102138.72;1829447;76;86410;-67
2022/05/02 00:46:32;;;;;;;78.63;71.93;;;;;;;11.14;100.00;102127.67;1798871;77;86350;-67
2022/05/02 00:52:16;;;;;;;79.53;72.53;;;;;;;11.18;100.00;102121.34;1984697;71;39637;-67
2022/05/02 00:58:00;;;;;;;77.83;71.03;;;;;;;10.98;100.00;102121.63;1821444;77;86926;-67
2022/05/02 01:03:45;;;;;;;76.87;70.17;;;;;;;10.98;100.00;102125.79;1880571;73;86382;-66
2022/05/02 01:09:31;;;;;;;77.47;70.67;;;;;;;11.11;100.00;102117.08;1801441;77;86749;-66
2022/05/02 01:15:16;;;;;;;73.87;67.43;;;;;;;11.04;100.00;102113.66;1979128;71;39632;-68
2022/05/02 01:21:01;;;;;;;76.23;69.67;;;;;;;10.90;100.00;102127.08;1841918;76;85369;-66
2022/05/02 01:26:45;;;;;;;77.80;70.93;;;;;;;11.11;100.00;102122.09;1903403;73;86735;-67
2022/05/02 01:32:30;;;;;;;80.77;73.37;;;;;;;11.12;100.00;102127.95;1857686;76;85450;-67
2022/05/02 01:38:14;;;;;;;79.13;72.30;;;;;;;11.17;100.00;102124.37;1973914;71;39550;-66
2022/05/02 01:43:58;;;;;;;80.33;73.50;;;;;;;11.12;100.00;102121.00;1853875;76;85459;-66
2022/05/02 01:49:42;;;;;;;82.80;75.97;;;;;;;11.12;100.00;102124.33;1903366;74;86943;-67
2022/05/02 01:55:26;;;;;;;80.73;73.83;;;;;;;11.13;100.00;102122.66;1936682;73;86801;-67
2022/05/02 02:01:09;;;;;;;80.27;73.67;;;;;;;11.16;100.00;102125.49;1926154;70;39540;-67
2022/05/02 02:06:53;;;;;;;78.70;72.17;;;;;;;11.01;100.00;102118.31;1881758;74;86477;-67
2022/05/02 02:12:37;;;;;;;79.87;73.37;;;;;;;11.09;100.00;102115.93;1895055;75;86487;-67
2022/05/02 02:18:25;;;;;;;79.77;73.17;;;;;;;11.16;100.00;102111.59;1916640;74;86547;-67
2022/05/02 02:24:11;;;;;;;79.13;72.53;;;;;;;11.14;100.00;102111.83;1983921;71;39502;-67
2022/05/02 02:29:57;;;;;;;73.23;67.03;;;;;;;10.84;100.00;102111.41;1828858;76;86522;-67
2022/05/02 02:32:46;;;;;;;72.03;65.80;;;;;;;10.75;100.00;102117.96;1793102;78;938114;-66
2022/05/02 02:38:32;;;;;;;74.23;67.93;;;;;;;10.77;100.00;102111.61;1803623;77;86557;-67
2022/05/02 02:44:17;;;;;;;76.40;70.03;;;;;;;10.61;100.00;102105.52;1981413;71;39779;-67
2022/05/02 02:50:02;;;;;;;75.77;69.37;;;;;;;10.71;100.00;102110.39;1826153;76;86582;-67
2022/05/02 02:55:46;;;;;;;75.27;68.67;;;;;;;10.45;100.00;102105.84;1896875;74;86290;-67
2022/05/02 03:01:31;;;;;;;78.53;71.77;;;;;;;10.49;100.00;102107.01;1808614;77;86514;-67
2022/05/02 03:07:15;;;;;;;79.77;72.87;;;;;;;10.42;100.00;102097.17;1963949;71;39593;-66
2022/05/02 03:13:00;;;;;;;78.13;71.13;;;;;;;10.34;100.00;102094.83;1835092;76;86641;-66
2022/05/02 03:18:44;;;;;;;77.87;70.93;;;;;;;10.40;100.00;102095.19;1890221;74;86531;-67
2022/05/02 03:24:28;;;;;;;74.30;67.80;;;;;;;10.32;100.00;102095.61;1917797;72;86210;-67
2022/05/02 03:30:14;;;;;;;73.73;67.13;;;;;;;10.21;100.00;102093.78;1980532;70;39769;-68
2022/05/02 03:35:59;;;;;;;74.57;67.83;;;;;;;10.25;100.00;102088.86;1838487;75;85669;-67
2022/05/02 03:41:43;;;;;;;77.30;70.20;;;;;;;10.30;100.00;102093.11;1883629;74;86759;-67
2022/05/02 03:47:28;;;;;;;76.20;69.10;;;;;;;10.34;100.00;102090.12;1850776;74;86645;-66
2022/05/02 03:53:15;;;;;;;74.07;67.13;;;;;;;10.39;100.00;102091.59;1984253;71;39650;-67
2022/05/02 03:58:56;;;;;;;68.90;62.47;;;;;;;10.39;100.00;102093.52;1848899;76;86228;-67
2022/05/02 04:04:40;;;;;;;74.30;67.30;;;;;;;10.31;100.00;102087.82;1825016;78;86353;-66
2022/05/02 04:10:27;;;;;;;75.67;68.87;;;;;;;10.26;100.00;102091.94;1923812;72;86511;-67
2022/05/02 04:16:13;;;;;;;77.50;70.20;;;;;;;10.23;100.00;102091.57;1925084;71;39754;-67
2022/05/02 04:21:57;;;;;;;78.93;71.53;;;;;;;10.28;100.00;102091.12;1981120;72;85502;-67
2022/05/02 04:27:43;;;;;;;78.60;71.13;;;;;;;10.35;100.00;102087.64;1882900;73;85608;-67
2022/05/02 04:33:29;;;;;;;79.50;71.97;;;;;;;10.28;100.00;102087.49;1810428;77;86572;-67
2022/05/02 04:39:15;;;;;;;79.93;72.67;;;;;;;10.34;100.00;102094.83;1980313;71;39731;-67
2022/05/02 04:44:59;;;;;;;77.60;70.47;;;;;;;10.29;100.00;102093.34;1975846;71;86816;-67
2022/05/02 04:50:44;;;;;;;79.47;72.03;;;;;;;10.42;100.00;102087.45;1885318;73;86396;-66
2022/05/02 04:56:29;;;;;;;82.97;75.27;;;;;;;10.52;100.00;102090.94;1835371;76;86421;-66
2022/05/02 05:02:12;;;;;;;80.90;73.37;;;;;;;10.51;100.00;102094.27;1978237;71;39651;-68
2022/05/02 05:07:56;;;;;;;79.00;71.73;;;;;;;10.49;100.00;102096.44;1837483;76;86070;-67
2022/05/02 05:16:20;;;;;;;79.77;72.33;;;;;;;10.47;100.00;102105.05;1871551;75;86217;-67
2022/05/02 05:20:12;;;;;;;83.50;75.70;;;;;;;10.61;100.00;102101.34;1840077;76;86700;-66
2022/05/02 05:23:11;;;;;;;83.80;75.93;;;;;;;10.60;100.00;102106.63;1778071;77;937757;-67
2022/05/02 05:29:13;;;;;;;80.80;73.37;;;;;;;10.66;100.00;102107.53;1796536;78;86421;-68
2022/05/02 05:35:07;;;;;;;87.60;79.60;;;;;;;10.74;100.00;102109.90;1803364;78;86661;-68
2022/05/02 05:41:28;;;;;;;85.47;77.37;;;;;;;10.77;100.00;102110.77;1899127;73;86267;-66
2022/05/02 05:47:28;;;;;;;88.17;80.13;;;;;;;10.98;100.00;102094.66;1918505;73;86615;-67
2022/05/02 05:53:19;;;;;;;89.70;81.50;;;;;;;11.06;100.00;102094.76;1944918;71;39474;-67
2022/05/02 05:59:09;;;;;;;86.23;78.23;;;;;;;11.13;100.00;102101.80;1796365;78;86668;-67
2022/05/02 06:05:07;;;;;;;85.87;78.23;;;;;;;11.36;100.00;102105.72;1798318;78;86755;-67
2022/05/02 06:10:53;;;;;;;90.57;82.40;;;;;;;11.50;100.00;102094.19;1875691;76;85665;-67
2022/05/02 06:22:46;;;;;;;89.30;81.47;;;;;;;11.59;100.00;102094.86;1882340;74;86862;-67
2022/05/02 06:28:35;;;;;;;97.43;89.17;;;;;;;11.67;100.00;102092.16;1806282;77;85626;-67
2022/05/02 06:34:29;;;;;;;91.03;83.43;;;;;;;11.74;100.00;102103.39;1915036;72;86363;-67
2022/05/02 06:40:30;;;;;;;94.63;86.80;;;;;;;11.67;100.00;102112.48;1915863;73;86356;-68
2022/05/02 06:46:29;;;;;;;91.07;83.33;;;;;;;11.42;100.00;102120.54;1903851;72;85694;-68
2022/05/02 06:52:18;;;;;;;85.37;77.67;;;;;;;11.61;100.00;102123.80;1985683;71;39705;-67
2022/05/02 06:58:09;;;;;;;89.80;82.00;;;;;;;11.71;100.00;102127.55;1833124;76;86534;-68
2022/05/02 07:04:38;;;;;;;86.47;79.07;;;;;;;11.70;100.00;102127.26;1845326;76;86707;-68
2022/05/02 07:10:35;;;;;;;88.40;80.50;;;;;;;11.86;100.00;102118.53;1870789;74;86233;-68
2022/05/02 07:16:26;;;;;;;91.33;83.40;;;;;;;12.07;100.00;102119.57;1875912;75;86170;-66
2022/05/02 07:25:41;;;;;;;88.73;80.87;;;;;;;11.97;100.00;102119.49;1955963;71;86641;-67
2022/05/02 07:31:33;;;;;;;88.20;80.80;;;;;;;12.08;100.00;102113.75;1806427;77;86582;-67
2022/05/02 07:37:22;;;;;;;82.87;76.33;;;;;;;12.27;100.00;102117.83;1845629;76;86420;-68
2022/05/02 07:43:08;;;;;;;84.07;77.30;;;;;;;12.38;100.00;102117.89;1987543;71;39696;-67
2022/05/02 07:48:59;;;;;;;81.93;75.43;;;;;;;12.45;100.00;102109.59;1950032;72;86182;-68
2022/05/02 07:54:46;;;;;;;81.23;74.77;;;;;;;12.71;100.00;102119.81;1904073;74;86340;-66
2022/05/02 08:00:32;;;;;;;76.77;71.03;;;;;;;12.90;100.00;102121.62;1850439;75;86824;-66
2022/05/02 08:06:23;;;;;;;80.37;74.27;;;;;;;12.91;100.00;102121.07;1983259;71;39689;-67
2022/05/02 08:12:33;;;;;;;81.20;74.90;;;;;;;12.83;100.00;102123.81;1864270;75;86625;-67
2022/05/02 08:18:30;;;;;;;80.77;74.77;;;;;;;12.91;100.00;102129.44;1948662;73;86444;-67
2022/05/02 08:21:04;;;;;;;80.47;74.00;;;;;;;12.81;100.00;102134.38;1893448;74;941635;-66
2022/05/02 08:27:25;;;;;;;81.13;74.83;;;;;;;12.81;100.00;102140.52;1905775;74;940894;-67
2022/05/02 08:33:25;;;;;;;75.40;69.67;;;;;;;13.01;100.00;102137.84;1927537;73;86449;-67
2022/05/02 08:36:00;;;;;;;74.67;69.23;;;;;;;13.17;100.00;102140.50;1856091;75;938865;-67
2022/05/02 08:38:52;;;;;;;76.33;70.53;;;;;;;13.12;100.00;102141.87;1872610;75;940878;-67
2022/05/02 08:45:58;;;;;;;74.47;69.03;;;;;;;13.55;100.00;102134.23;1932744;71;39616;-67
2022/05/02 08:49:36;;;;;;;74.40;69.23;;;;;;;13.68;100.00;102139.31;1881148;74;938916;-67
2022/05/02 08:59:25;;;;;;;71.53;66.60;;;;;;;13.85;100.00;102124.55;1978430;71;39722;-69
2022/05/02 09:02:16;;;;;;;72.23;67.23;;;;;;;14.24;100.00;102135.22;1900548;73;938994;-69
2022/05/02 09:05:35;;;;;;;69.13;64.43;;;;;;;14.44;100.00;102122.67;1912284;73;938901;-70
2022/05/02 09:12:17;;;;;;;73.07;68.07;;;;;;;14.27;100.00;102129.06;1911317;73;86534;-68
2022/05/02 09:15:45;;;;;;;70.70;65.80;;;;;;;14.17;100.00;102136.88;1873604;75;936809;-70
2022/05/02 09:22:04;;;;;;;65.20;60.50;;;;;;;14.53;100.00;102127.42;1907669;73;86281;-71
2022/05/02 09:28:19;;;;;;;65.20;60.87;;;;;;;14.14;100.00;102117.33;1981215;71;39662;-69
2022/05/02 09:34:47;;;;;;;65.07;60.63;;;;;;;14.32;100.00;102120.69;1881451;74;86402;-70
2022/05/02 09:37:20;;;;;;;63.53;59.30;;;;;;;14.55;100.00;102124.33;1833746;74;938779;-69
2022/05/02 09:43:21;;;;;;;62.53;58.47;;;;;;;14.37;100.00;102114.58;1851203;76;86222;-70
2022/05/02 10:01:52;;;;;;;56.57;52.90;;;;;;;14.24;100.00;102119.85;1798489;78;85674;-69
2022/05/02 10:07:49;;;;;;;58.37;54.50;;;;;;;14.20;100.00;102122.92;1868030;74;86165;-70
2022/05/02 10:13:35;;;;;;;55.70;52.40;;;;;;;14.73;100.00;102119.56;1808434;77;86636;-69
2022/05/02 10:22:45;;;;;;;55.47;52.00;;;;;;;14.80;100.00;102115.09;1959364;71;86473;-69
2022/05/02 10:25:22;;;;;;;53.60;50.17;;;;;;;14.81;100.00;102120.38;1866731;73;938727;-70
2022/05/02 10:28:07;;;;;;;52.57;49.17;;;;;;;14.56;100.00;102119.86;1857211;75;938935;-70
2022/05/02 10:34:04;;;;;;;48.63;45.63;;;;;;;14.38;100.00;102125.17;1850869;76;86684;-70
2022/05/02 10:39:56;;;;;;;53.13;49.83;;;;;;;14.33;100.00;102127.96;1893798;74;85602;-70
2022/05/02 10:45:43;;;;;;;47.93;45.07;;;;;;;14.70;100.00;102127.68;1871496;74;86549;-71
2022/05/02 10:51:37;;;;;;;44.00;41.17;;;;;;;14.63;100.00;102120.15;1875961;75;86442;-70
2022/05/02 11:00:36;;;;;;;40.87;38.27;;;;;;;14.92;100.00;102115.61;1970469;71;86376;-70
2022/05/02 11:06:47;;;;;;;41.10;38.53;;;;;;;14.65;100.00;102106.70;1885570;75;86378;-70
2022/05/02 11:09:21;;;;;;;41.33;38.80;;;;;;;14.91;100.00;102110.58;1824659;75;938842;-70
2022/05/02 11:15:09;;;;;;;39.03;36.63;;;;;;;14.72;100.00;102110.07;1892258;74;86453;-70
2022/05/02 11:21:09;;;;;;;38.67;36.17;;;;;;;14.99;100.00;102108.59;1881076;74;85186;-70
2022/05/02 11:27:02;;;;;;;40.73;38.23;;;;;;;15.01;100.00;102106.36;1979784;69;86379;-70
2022/05/02 11:33:14;;;;;;;38.00;35.70;;;;;;;14.87;100.00;102112.83;1809809;78;86564;-70
2022/05/02 11:35:48;;;;;;;37.67;35.40;;;;;;;14.91;100.00;102112.53;1767309;79;936943;-70
2022/05/02 11:41:50;;;;;;;38.53;36.03;;;;;;;14.99;100.00;102109.99;1830191;76;86508;-70
2022/05/02 11:47:41;;;;;;;36.47;34.17;;;;;;;14.98;100.00;102106.06;1854088;76;85790;-70
2022/05/02 11:53:28;;;;;;;40.67;37.97;;;;;;;15.21;100.00;102108.80;1915522;74;86658;-70
2022/05/02 11:59:14;;;;;;;37.23;34.87;;;;;;;15.24;100.00;102107.66;1956775;71;39666;-69
2022/05/02 12:01:47;;;;;;;35.53;33.33;;;;;;;15.02;100.00;102109.41;1919871;73;936943;-69
2022/05/02 12:07:33;;;;;;;36.90;34.50;;;;;;;14.93;100.00;102102.72;1874578;75;86364;-71
2022/05/02 12:13:21;;;;;;;39.80;37.30;;;;;;;15.39;100.00;102093.61;1829837;78;86359;-71
2022/05/02 12:19:12;;;;;;;36.00;33.77;;;;;;;15.40;100.00;102093.86;1983404;71;39544;-69
2022/05/02 12:28:18;;;;;;;36.20;33.97;;;;;;;15.41;100.00;102087.14;1947999;71;39598;-66
2022/05/02 12:34:10;;;;;;;33.77;31.53;;;;;;;15.73;100.00;102090.94;1982865;71;39642;-70
2022/05/02 12:40:08;;;;;;;31.87;29.57;;;;;;;16.96;100.00;102088.19;1921366;73;86783;-70
2022/05/02 12:45:55;;;;;;;26.90;25.20;;;;;;;16.85;100.00;102083.83;1840451;76;85703;-69
2022/05/02 12:51:51;;;;;;;24.93;23.33;;;;;;;17.10;100.00;102078.48;1884497;73;85382;-70
2022/05/02 13:03:56;;;;;;;25.60;23.90;;;;;;;16.90;100.00;102071.71;1887088;74;85550;-70
2022/05/02 13:09:46;;;;;;;23.27;21.67;;;;;;;16.96;100.00;102058.71;1882715;73;85926;-68
2022/05/02 13:15:33;;;;;;;23.00;21.40;;;;;;;16.66;100.00;102066.06;1871213;75;86554;-67
2022/05/02 13:21:14;;;;;;;24.50;22.80;;;;;;;16.85;100.00;102059.98;1917498;71;39583;-70
2022/05/02 13:27:17;;;;;;;21.20;19.40;;;;;;;17.54;100.00;102059.94;1905041;73;86221;-68
2022/05/02 13:33:17;;;;;;;18.40;17.20;;;;;;;17.19;100.00;102045.80;1950988;71;39459;-71
2022/05/02 13:39:06;;;;;;;17.87;16.67;;;;;;;17.19;100.00;102040.19;1840249;75;86529;-68
2022/05/02 13:44:56;;;;;;;18.80;17.60;;;;;;;17.15;100.00;102033.50;1881821;74;86479;-70
2022/05/02 13:50:46;;;;;;;20.30;18.90;;;;;;;17.85;100.00;102024.62;1908231;74;85618;-69
2022/05/02 13:56:42;;;;;;;19.10;17.73;;;;;;;17.35;100.00;102021.14;1864297;76;86322;-68
2022/05/02 14:02:44;;;;;;;19.73;18.27;;;;;;;17.26;100.00;102019.02;1936798;72;86681;-68
2022/05/02 14:08:22;;;;;;;17.13;15.93;;;;;;;17.24;100.00;102024.68;1919566;72;86449;-71
2022/05/02 14:14:12;;;;;;;18.37;17.13;;;;;;;17.70;100.00;102015.88;1985757;71;39564;-71
2022/05/02 14:20:21;;;;;;;19.00;17.70;;;;;;;17.22;100.00;102016.55;1837437;76;86474;-69
2022/05/02 14:26:17;;;;;;;21.70;20.20;;;;;;;17.18;100.00;102020.26;1943211;71;39568;-68
2022/05/02 14:32:10;;;;;;;21.63;20.10;;;;;;;16.95;100.00;102017.73;1841831;76;86524;-68
2022/05/02 14:37:58;;;;;;;20.83;19.23;;;;;;;17.20;100.00;102016.00;1848631;76;85923;-71
2022/05/02 14:43:43;;;;;;;21.33;19.73;;;;;;;17.39;100.00;102014.62;1880752;74;86820;-71
2022/05/02 14:49:27;;;;;;;22.00;20.50;;;;;;;17.35;100.00;102014.13;1912655;74;86498;-68
2022/05/02 14:55:12;;;;;;;22.07;20.43;;;;;;;17.40;100.00;102010.69;1982075;71;39688;-71
2022/05/02 15:01:01;;;;;;;21.13;19.57;;;;;;;17.75;100.00;102007.94;1842435;76;86294;-71
2022/05/02 15:06:48;;;;;;;20.47;18.87;;;;;;;17.43;100.00;102001.64;1873126;75;86545;-71
2022/05/02 15:15:55;;;;;;;20.63;19.17;;;;;;;18.24;100.00;102000.33;1809415;78;86346;-71
2022/05/02 15:18:39;;;;;;;20.13;18.73;;;;;;;17.95;100.00;102000.56;1763937;79;938791;-71
2022/05/02 15:44:02;;;;;;;18.47;17.00;;;;;;;17.37;100.00;101999.22;1880829;74;86273;-69
2022/05/02 15:50:12;;;;;;;17.27;16.10;;;;;;;17.32;100.00;102003.50;1831446;76;86262;-67
2022/05/02 15:56:19;;;;;;;18.50;17.30;;;;;;;17.33;100.00;102008.80;1958026;70;39583;-68
2022/05/02 16:02:15;;;;;;;18.23;16.93;;;;;;;17.34;100.00;101999.80;1982727;71;40018;-68
2022/05/02 16:14:19;;;;;;;17.77;16.57;;;;;;;17.28;100.00;101993.45;1920782;71;39701;-67
2022/05/02 16:20:06;;;;;;;16.83;15.63;;;;;;;17.34;100.00;101999.24;1794170;79;86112;-69
2022/05/02 16:25:59;;;;;;;16.40;15.40;;;;;;;17.24;100.00;101989.58;1809329;78;86787;-71
2022/05/02 16:31:43;;;;;;;16.43;15.43;;;;;;;17.72;100.00;101981.27;1897608;73;86423;-71
2022/05/02 16:37:34;;;;;;;15.80;14.70;;;;;;;17.61;100.00;101987.36;1923546;73;85311;-72
2022/05/02 16:43:23;;;;;;;15.80;14.80;;;;;;;17.04;100.00;101987.02;1948094;73;86621;-69
2022/05/02 16:49:10;;;;;;;15.17;14.27;;;;;;;16.96;100.00;101995.55;1924939;71;39566;-73
2022/05/02 16:58:11;;;;;;;16.20;15.10;;;;;;;16.75;100.00;101996.37;1983889;71;39580;-73
2022/05/02 17:04:01;;;;;;;17.60;16.30;;;;;;;17.06;100.00;101992.63;1902714;73;86362;-69
2022/05/02 17:09:46;;;;;;;18.93;17.47;;;;;;;17.14;100.00;101989.14;1903612;74;86355;-70
2022/05/02 17:15:32;;;;;;;19.47;18.17;;;;;;;17.04;100.00;101988.43;1801681;77;86219;-70
2022/05/02 17:21:17;;;;;;;17.13;16.03;;;;;;;17.08;100.00;101984.72;1940628;71;39700;-71
2022/05/02 17:23:51;;;;;;;48.27;43.80;;;;;;;17.23;100.00;101994.36;1863655;74;936836;-74
2022/05/02 17:29:37;;;;;;;17.30;16.10;;;;;;;17.12;100.00;101994.20;1801273;77;86714;-71
2022/05/02 17:35:25;;;;;;;17.93;16.67;;;;;;;16.91;100.00;101997.58;1916938;74;85966;-73
2022/05/02 17:41:16;;;;;;;18.53;17.33;;;;;;;16.79;100.00;101996.61;1981349;71;39648;-69
2022/05/02 17:47:09;;;;;;;19.37;17.93;;;;;;;16.79;100.00;102002.22;1803656;78;86565;-70
2022/05/02 17:52:59;;;;;;;18.53;17.33;;;;;;;16.68;100.00;102010.50;1875839;74;86555;-70
2022/05/02 17:58:43;;;;;;;18.17;16.87;;;;;;;16.61;100.00;102009.44;1883099;74;86477;-69
2022/05/02 18:04:30;;;;;;;17.70;16.50;;;;;;;16.58;100.00;102017.05;1936970;73;86001;-73
2022/05/02 18:10:34;;;;;;;18.97;17.63;;;;;;;16.50;100.00;102024.69;1806596;77;86773;-72
2022/05/02 18:22:59;;;;;;;18.20;16.87;;;;;;;16.18;100.00;102018.82;1948271;73;86721;-72
2022/05/02 18:25:33;;;;;;;18.37;17.17;;;;;;;16.21;100.00;102026.11;1880282;73;938746;-71
2022/05/02 18:28:11;;;;;;;18.12;16.93;;;;;;;16.10;100.00;102020.30;1888165;74;940922;-67
2022/05/02 18:34:21;;;;;;;18.23;16.87;;;;;;;16.19;100.00;102021.34;1871620;73;85481;-67
2022/05/02 18:40:11;;;;;;;18.83;17.63;;;;;;;16.14;100.00;102028.95;1986926;71;39463;-67
2022/05/02 19:04:21;;;;;;;25.93;24.03;;;;;;;16.13;100.00;102035.12;1877767;73;86237;-73
2022/05/02 19:10:09;;;;;;;26.67;24.77;;;;;;;16.05;100.00;102034.36;1811207;78;86040;-70
2022/05/02 19:15:55;;;;;;;31.53;29.17;;;;;;;15.97;100.00;102037.79;1881550;74;86229;-71
2022/05/02 19:22:12;;;;;;;32.17;29.87;;;;;;;15.93;100.00;102037.55;1896623;74;85319;-72
2022/05/02 19:28:13;;;;;;;35.90;33.30;;;;;;;15.76;100.00;102044.68;1974690;71;39529;-72
2022/05/02 19:39:06;;;;;;;36.60;33.93;;;;;;;15.74;100.00;102050.59;1847051;76;86123;-69
2022/05/02 19:39:48;;;;;;;36.90;34.23;;;;;;;15.73;100.00;102057.88;1795701;78;86137;-70
2022/05/02 19:45:39;;;;;;;37.43;34.67;;;;;;;15.70;100.00;102059.27;1911058;74;86832;-72
2022/05/02 19:51:29;;;;;;;39.60;36.70;;;;;;;15.67;100.00;102063.22;1924362;73;86123;-68
2022/05/02 19:54:00;;;;;;;39.30;36.40;;;;;;;15.59;100.00;102068.04;1853026;74;941929;-67
2022/05/02 19:59:46;;;;;;;40.40;37.50;;;;;;;15.54;100.00;102060.50;1883472;74;86553;-68
2022/05/02 20:05:31;;;;;;;42.50;39.50;;;;;;;15.48;100.00;102063.89;1858772;76;86009;-68
2022/05/02 20:11:16;;;;;;;45.00;41.80;;;;;;;15.43;100.00;102063.06;1975588;71;40385;-73
2022/05/02 20:17:01;;;;;;;45.40;42.20;;;;;;;15.36;100.00;102066.75;1883528;74;86290;-71
2022/05/02 20:22:45;;;;;;;47.87;44.67;;;;;;;15.29;100.00;102071.81;1884839;74;86686;-69
2022/05/02 20:28:30;;;;;;;49.20;45.70;;;;;;;15.27;100.00;102074.92;1800596;77;85751;-69
2022/05/02 20:40:21;;;;;;;52.47;48.80;;;;;;;15.23;100.00;102074.37;1906432;72;86798;-67
2022/05/02 20:46:09;;;;;;;54.10;50.20;;;;;;;15.11;100.00;102073.28;1981738;71;39570;-70
2022/05/02 20:55:14;;;;;;;56.53;52.53;;;;;;;15.10;100.00;102074.98;1937348;71;39709;-72
2022/05/02 21:00:58;;;;;;;57.47;53.17;;;;;;;15.03;100.00;102080.87;1854282;76;86626;-69
2022/05/02 21:06:42;;;;;;;56.10;52.40;;;;;;;15.02;100.00;102078.63;1882504;74;86750;-71
2022/05/02 21:12:32;;;;;;;54.83;50.87;;;;;;;14.96;100.00;102079.79;1928691;71;86948;-73
2022/05/02 21:15:09;;;;;;;56.60;52.40;;;;;;;14.92;100.00;102088.48;1857989;74;938824;-70
2022/05/02 21:17:45;;;;;;;55.73;51.73;;;;;;;14.90;100.00;102088.47;1853995;76;941011;-69
2022/05/02 21:20:20;;;;;;;57.37;53.37;;;;;;;14.86;100.00;102082.61;1829774;75;940952;-68
2022/05/02 21:22:58;;;;;;;58.57;54.53;;;;;;;14.80;100.00;102083.76;1859116;75;938958;-67
2022/05/02 21:25:34;;;;;;;59.63;55.50;;;;;;;14.82;100.00;102085.70;1852655;73;941029;-71
2022/05/02 21:28:17;;;;;;;61.05;56.85;;;;;;;14.79;100.00;102079.28;1842807;76;941042;-67
2022/05/02 21:30:56;;;;;;;58.07;53.97;;;;;;;14.80;100.00;102092.70;1832223;76;938943;-71
2022/05/02 21:36:44;;;;;;;60.50;56.37;;;;;;;14.72;100.00;102083.50;1891652;73;86072;-67
2022/05/02 21:42:31;;;;;;;62.10;57.70;;;;;;;14.80;100.00;102073.13;1858229;76;85241;-71
2022/05/02 21:48:15;;;;;;;61.37;56.97;;;;;;;14.77;100.00;102075.07;1977948;71;40317;-71
2022/05/02 21:54:01;;;;;;;61.30;57.03;;;;;;;14.77;100.00;102080.67;1842556;75;86165;-67
2022/05/02 21:59:44;;;;;;;59.17;54.90;;;;;;;14.88;100.00;102078.98;1883802;73;85514;-70
2022/05/02 22:05:30;;;;;;;62.40;57.90;;;;;;;14.66;100.00;102075.67;1805943;77;86154;-72
2022/05/02 22:11:14;;;;;;;66.20;61.70;;;;;;;14.55;100.00;102072.04;1923305;71;39571;-71
2022/05/02 22:16:59;;;;;;;68.50;63.70;;;;;;;14.47;100.00;102073.17;1838840;76;85649;-72
2022/05/02 22:22:43;;;;;;;72.00;67.00;;;;;;;14.45;100.00;102069.28;1883669;73;86385;-73
2022/05/02 22:28:26;;;;;;;69.90;65.03;;;;;;;14.45;100.00;102058.66;1914296;73;86163;-70
2022/05/02 22:34:10;;;;;;;71.57;66.70;;;;;;;14.48;100.00;102050.53;1979253;71;39648;-73
2022/05/02 22:39:54;;;;;;;72.73;67.70;;;;;;;14.36;100.00;102056.14;1826821;76;86297;-73
2022/05/02 22:45:39;;;;;;;74.30;69.20;;;;;;;14.00;100.00;102068.69;1890775;73;85317;-73
2022/05/02 22:51:24;;;;;;;77.60;72.23;;;;;;;13.98;100.00;102065.35;1911879;74;86104;-71
2022/05/02 23:00:17;;;;;;;75.07;70.00;;;;;;;14.21;100.00;102065.89;1977178;69;39539;-71
2022/05/02 23:06:07;;;;;;;78.23;72.80;;;;;;;13.89;100.00;102061.43;1796124;78;86314;-74
2022/05/02 23:11:54;;;;;;;78.57;73.27;;;;;;;14.20;100.00;102066.48;1885239;74;85375;-73
2022/05/02 23:17:44;;;;;;;81.97;76.40;;;;;;;14.23;100.00;102071.50;1807754;78;86696;-71
2022/05/02 23:23:29;;;;;;;79.13;73.83;;;;;;;14.26;100.00;102070.09;1807473;77;86606;-71
2022/05/02 23:29:14;;;;;;;79.07;73.43;;;;;;;14.18;100.00;102076.23;1985697;71;39526;-72
2022/05/02 23:35:04;;;;;;;80.57;75.07;;;;;;;14.06;100.00;102070.94;1898014;74;86207;-72
2022/05/02 23:40:58;;;;;;;80.17;74.67;;;;;;;14.02;100.00;102062.83;1848909;76;86386;-72
2022/05/02 23:46:50;;;;;;;79.50;74.10;;;;;;;13.93;100.00;102068.69;1908378;73;86076;-73
2022/05/02 23:52:46;;;;;;;78.73;73.20;;;;;;;14.11;100.00;102062.00;1877791;75;86066;-73
2022/05/02 23:58:47;;;;;;;79.27;73.37;;;;;;;14.02;100.00;102062.28;1871486;74;86337;-73
